createdAt,value
2022-12-14T00:01:51.010Z,1003
2022-12-14T00:03:48.266Z,1003
2022-12-14T00:05:47.801Z,1003
2022-12-14T00:07:46.724Z,1003
2022-12-14T00:09:49.586Z,1003
2022-12-14T00:11:49.116Z,1003
2022-12-14T00:13:50.918Z,1003
2022-12-14T00:15:49.248Z,1003
2022-12-14T00:17:49.554Z,1003
2022-12-14T00:19:48.823Z,1003
2022-12-14T00:21:49.502Z,1004
2022-12-14T00:23:47.819Z,1004
2022-12-14T00:25:50.003Z,1004
2022-12-14T00:27:47.848Z,1004
2022-12-14T00:29:49.400Z,1004
2022-12-14T00:31:50.458Z,1004
2022-12-14T00:33:47.492Z,1004
2022-12-14T00:35:46.852Z,1004
2022-12-14T00:37:49.699Z,1004
2022-12-14T00:39:48.700Z,1004
2022-12-14T00:41:50.453Z,1004
2022-12-14T00:43:49.117Z,1004
2022-12-14T00:45:50.698Z,1004
2022-12-14T00:47:49.812Z,1003
2022-12-14T00:49:50.056Z,1003
2022-12-14T00:51:49.145Z,1003
2022-12-14T00:53:49.570Z,1003
2022-12-14T00:55:50.512Z,1003
2022-12-14T00:57:46.537Z,1003
2022-12-14T00:59:50.910Z,1003
2022-12-14T01:01:46.878Z,1003
2022-12-14T01:03:49.090Z,1003
2022-12-14T01:05:49.057Z,1003
2022-12-14T01:07:50.628Z,1003
2022-12-14T01:09:46.785Z,1003
2022-12-14T01:11:48.469Z,1003
2022-12-14T01:13:49.248Z,1003
2022-12-14T01:15:51.019Z,1003
2022-12-14T01:17:47.428Z,1003
2022-12-14T01:19:48.916Z,1003
2022-12-14T01:21:49.746Z,1003
2022-12-14T01:23:50.516Z,1003
2022-12-14T01:25:49.058Z,1003
2022-12-14T01:27:50.583Z,1003
2022-12-14T01:29:50.005Z,1003
2022-12-14T01:31:50.596Z,1003
2022-12-14T01:33:48.230Z,1003
2022-12-14T01:35:50.047Z,1003
2022-12-14T01:37:49.113Z,1003
2022-12-14T01:39:46.822Z,1003
2022-12-14T01:41:50.716Z,1003
2022-12-14T01:43:48.616Z,1003
2022-12-14T01:45:50.098Z,1003
2022-12-14T01:47:46.424Z,1003
2022-12-14T01:49:48.797Z,1003
2022-12-14T01:51:49.165Z,1003
2022-12-14T01:53:49.963Z,1003
2022-12-14T01:55:48.910Z,1003
2022-12-14T01:57:47.878Z,1003
2022-12-14T01:59:46.934Z,1003
2022-12-14T02:01:48.263Z,1003
2022-12-14T02:03:48.028Z,1003
2022-12-14T02:05:49.299Z,1003
2022-12-14T02:07:48.858Z,1003
2022-12-14T02:09:49.656Z,1003
2022-12-14T02:11:46.453Z,1003
2022-12-14T02:13:49.152Z,1003
2022-12-14T02:15:51.050Z,1003
2022-12-14T02:17:49.582Z,1003
2022-12-14T02:19:48.846Z,1003
2022-12-14T02:21:46.484Z,1003
2022-12-14T02:23:46.474Z,1003
2022-12-14T02:25:50.536Z,1003
2022-12-14T02:27:49.096Z,1003
2022-12-14T02:29:48.922Z,1003
2022-12-14T02:31:50.532Z,1003
2022-12-14T02:33:48.353Z,1003
2022-12-14T02:35:49.197Z,1003
2022-12-14T02:37:49.609Z,1003
2022-12-14T02:39:48.513Z,1003
2022-12-14T02:41:50.923Z,1003
2022-12-14T02:43:49.524Z,1003
2022-12-14T02:45:48.705Z,1003
2022-12-14T02:47:46.164Z,1002
2022-12-14T02:49:50.057Z,1002
2022-12-14T02:51:49.663Z,1002
2022-12-14T02:53:48.252Z,1002
2022-12-14T02:55:50.225Z,1002
2022-12-14T02:57:47.961Z,1002
2022-12-14T02:59:47.539Z,1002
2022-12-14T03:01:48.712Z,1002
2022-12-14T03:03:49.512Z,1002
2022-12-14T03:05:46.929Z,1002
2022-12-14T03:07:48.782Z,1002
2022-12-14T03:09:49.777Z,1002
2022-12-14T03:11:46.169Z,1002
2022-12-14T03:13:51.034Z,1002
2022-12-14T03:15:46.479Z,1002
2022-12-14T03:17:49.128Z,1002
2022-12-14T03:19:48.996Z,1002
2022-12-14T03:21:49.417Z,1002
2022-12-14T03:25:50.069Z,1002
2022-12-14T03:27:46.209Z,1002
2022-12-14T03:29:48.252Z,1002
2022-12-14T03:31:50.557Z,1002
2022-12-14T03:33:46.545Z,1002
2022-12-14T03:35:50.559Z,1002
2022-12-14T03:37:53.192Z,1002
2022-12-14T03:39:48.402Z,1002
2022-12-14T03:41:51.010Z,1002
2022-12-14T03:43:50.946Z,1002
2022-12-14T03:45:50.164Z,1002
2022-12-14T03:47:48.279Z,1002
2022-12-14T03:49:48.990Z,1002
2022-12-14T03:51:51.528Z,1002
2022-12-14T03:53:46.461Z,1002
2022-12-14T03:55:50.477Z,1002
2022-12-14T03:57:48.866Z,1002
2022-12-14T03:59:48.781Z,1002
2022-12-14T04:01:49.030Z,1002
2022-12-14T04:03:50.217Z,1002
2022-12-14T04:05:50.624Z,1002
2022-12-14T04:07:49.534Z,1002
2022-12-14T04:09:48.174Z,1002
2022-12-14T04:11:50.895Z,1002
2022-12-14T04:13:49.620Z,1002
2022-12-14T04:15:48.288Z,1002
2022-12-14T04:17:51.114Z,1002
2022-12-14T04:19:48.899Z,1002
2022-12-14T04:21:49.153Z,1002
2022-12-14T04:23:49.737Z,1002
2022-12-14T04:25:50.051Z,1002
2022-12-14T04:29:47.894Z,1002
2022-12-14T04:31:49.036Z,1002
2022-12-14T04:33:48.848Z,1002
2022-12-14T04:35:49.968Z,1002
2022-12-14T04:37:50.519Z,1002
2022-12-14T04:39:51.008Z,1002
2022-12-14T04:41:47.873Z,1002
2022-12-14T04:43:50.321Z,1002
2022-12-14T04:45:50.671Z,1002
2022-12-14T04:47:50.088Z,1002
2022-12-14T04:49:46.114Z,1002
2022-12-14T04:51:50.153Z,1002
2022-12-14T04:53:50.620Z,1002
2022-12-14T04:55:48.828Z,1002
2022-12-14T04:57:49.294Z,1002
2022-12-14T04:59:49.877Z,1002
2022-12-14T05:01:49.652Z,1002
2022-12-14T05:03:48.820Z,1002
2022-12-14T05:05:46.487Z,1001
2022-12-14T05:07:50.578Z,1001
2022-12-14T05:09:46.574Z,1001
2022-12-14T05:11:53.481Z,1001
2022-12-14T05:13:49.855Z,1001
2022-12-14T05:15:48.405Z,1001
2022-12-14T05:17:51.071Z,1001
2022-12-14T05:19:50.570Z,1001
2022-12-14T05:21:46.924Z,1001
2022-12-14T05:23:50.561Z,1001
2022-12-14T05:25:48.966Z,1001
2022-12-14T05:27:47.535Z,1001
2022-12-14T05:29:46.167Z,1001
2022-12-14T05:31:49.987Z,1001
2022-12-14T05:33:50.041Z,1001
2022-12-14T05:35:50.707Z,1001
2022-12-14T05:37:49.320Z,1001
2022-12-14T05:39:50.652Z,1001
2022-12-14T05:41:51.410Z,1001
2022-12-14T05:43:49.980Z,1001
2022-12-14T05:45:48.030Z,1001
2022-12-14T05:47:50.038Z,1001
2022-12-14T05:49:50.948Z,1001
2022-12-14T05:51:50.173Z,1001
2022-12-14T05:53:51.092Z,1001
2022-12-14T05:55:47.909Z,1001
2022-12-14T05:57:50.535Z,1001
2022-12-14T05:59:51.332Z,1001
2022-12-14T06:01:50.965Z,1001
2022-12-14T06:03:48.300Z,1001
2022-12-14T06:05:46.325Z,1001
2022-12-14T06:07:50.821Z,1001
2022-12-14T06:09:50.932Z,1001
2022-12-14T06:11:49.976Z,1001
2022-12-14T06:13:46.197Z,1001
2022-12-14T06:15:49.398Z,1000
2022-12-14T06:17:46.948Z,1000
2022-12-14T06:19:50.231Z,1000
2022-12-14T06:21:50.561Z,1001
2022-12-14T06:25:46.166Z,1001
2022-12-14T06:27:49.753Z,1001
2022-12-14T06:29:48.251Z,1001
2022-12-14T06:31:49.247Z,1001
2022-12-14T06:33:47.901Z,1001
2022-12-14T06:35:50.303Z,1001
2022-12-14T06:37:50.098Z,1001
2022-12-14T06:39:52.685Z,1000
2022-12-14T06:41:48.928Z,1000
2022-12-14T06:43:49.250Z,1001
2022-12-14T06:45:48.265Z,1000
2022-12-14T06:47:50.805Z,1000
2022-12-14T06:49:50.080Z,1000
2022-12-14T06:51:49.568Z,1000
2022-12-14T06:53:49.266Z,1000
2022-12-14T06:55:50.903Z,1000
2022-12-14T06:57:50.347Z,1000
2022-12-14T06:59:50.549Z,1000
2022-12-14T07:01:50.212Z,1000
2022-12-14T07:03:46.535Z,1000
2022-12-14T07:05:49.149Z,1000
2022-12-14T07:13:03.074Z,1000
2022-12-14T07:15:02.709Z,1000
2022-12-14T07:17:05.809Z,1000
2022-12-14T07:21:07.219Z,1000
2022-12-14T07:23:06.328Z,1000
2022-12-14T07:27:04.227Z,1000
2022-12-14T07:29:03.197Z,1000
2022-12-14T07:33:12.332Z,1000
2022-12-14T07:35:04.194Z,1000
2022-12-14T07:39:05.297Z,1000
2022-12-14T07:41:04.359Z,1000
2022-12-14T07:43:07.160Z,1000
2022-12-14T07:45:03.596Z,1000
2022-12-14T07:47:13.778Z,1000
2022-12-14T07:49:14.211Z,1000
2022-12-14T07:51:07.712Z,1000
2022-12-14T07:53:06.760Z,1000
2022-12-14T07:57:05.513Z,1000
2022-12-14T07:59:05.208Z,1000
2022-12-14T08:03:04.624Z,1000
2022-12-14T08:05:12.192Z,1000
2022-12-14T08:07:12.412Z,1000
2022-12-14T08:09:10.430Z,1000
2022-12-14T08:11:06.377Z,1000
2022-12-14T08:15:04.636Z,1000
2022-12-14T08:17:03.725Z,1000
2022-12-14T08:21:04.922Z,1000
2022-12-14T08:23:05.807Z,1000
2022-12-14T08:27:07.209Z,1000
2022-12-14T08:29:07.080Z,1000
2022-12-14T08:31:13.864Z,1000
2022-12-14T08:33:04.596Z,1000
2022-12-14T08:35:05.688Z,1000
2022-12-14T08:39:02.841Z,1000
2022-12-14T08:41:05.873Z,1000
2022-12-14T08:45:05.672Z,1000
2022-12-14T08:47:06.400Z,999
2022-12-14T08:49:07.061Z,999
2022-12-14T08:51:07.780Z,999
2022-12-14T08:57:02.902Z,999
2022-12-14T08:59:08.133Z,999
2022-12-14T09:03:07.376Z,999
2022-12-14T09:05:08.130Z,999
2022-12-14T09:07:13.692Z,999
2022-12-14T09:09:09.293Z,999
2022-12-14T09:11:04.115Z,999
2022-12-14T09:15:06.407Z,999
2022-12-14T09:17:05.561Z,999
2022-12-14T09:19:12.764Z,999
2022-12-14T09:21:04.867Z,999
2022-12-14T09:23:05.484Z,999
2022-12-14T09:25:09.211Z,999
2022-12-14T09:27:06.018Z,999
2022-12-14T09:29:03.133Z,999
2022-12-14T09:33:07.618Z,999
2022-12-14T09:35:03.408Z,999
2022-12-14T09:39:04.637Z,999
2022-12-14T09:41:07.576Z,999
2022-12-14T09:43:13.953Z,999
2022-12-14T09:45:05.969Z,999
2022-12-14T09:47:05.130Z,999
2022-12-14T09:51:10.753Z,999
2022-12-14T09:53:06.930Z,999
2022-12-14T09:57:05.981Z,999
2022-12-14T09:59:05.419Z,999
2022-12-14T10:03:11.738Z,999
2022-12-14T10:05:06.611Z,998
2022-12-14T10:09:05.586Z,998
2022-12-14T10:11:07.123Z,998
2022-12-14T10:13:06.972Z,998
2022-12-14T10:15:06.728Z,998
2022-12-14T10:17:09.008Z,998
2022-12-14T10:21:06.690Z,998
2022-12-14T10:23:02.897Z,998
2022-12-14T10:27:04.613Z,998
2022-12-14T10:29:10.144Z,998
2022-12-14T10:33:06.476Z,998
2022-12-14T10:35:05.431Z,998
2022-12-14T10:41:04.632Z,998
2022-12-14T10:45:38.882Z,998
2022-12-14T10:47:02.940Z,998
2022-12-14T10:51:05.897Z,998
2022-12-14T10:53:06.900Z,998
2022-12-14T10:57:05.590Z,998
2022-12-14T10:59:07.323Z,998
2022-12-14T11:03:07.045Z,998
2022-12-14T11:05:05.454Z,998
2022-12-14T11:07:13.727Z,998
2022-12-14T11:09:06.176Z,998
2022-12-14T11:15:04.753Z,998
2022-12-14T11:17:06.075Z,998
2022-12-14T11:21:07.224Z,998
2022-12-14T11:23:04.222Z,998
2022-12-14T11:27:04.675Z,998
2022-12-14T11:29:10.785Z,998
2022-12-14T11:31:14.175Z,998
2022-12-14T11:33:05.889Z,998
2022-12-14T11:35:06.880Z,998
2022-12-14T11:39:05.227Z,998
2022-12-14T11:41:09.087Z,998
2022-12-14T11:45:04.688Z,998
2022-12-14T11:47:07.137Z,998
2022-12-14T11:51:06.673Z,998
2022-12-14T11:53:10.926Z,997
2022-12-14T11:57:05.327Z,997
2022-12-14T11:59:10.812Z,997
2022-12-14T12:03:04.310Z,997
2022-12-14T12:05:04.500Z,997
2022-12-14T12:09:06.833Z,997
2022-12-14T12:11:06.958Z,997
2022-12-14T12:13:14.114Z,997
2022-12-14T12:15:04.625Z,997
2022-12-14T12:17:06.127Z,997
2022-12-14T12:21:06.688Z,997
2022-12-14T12:23:05.584Z,997
2022-12-14T12:27:05.482Z,997
2022-12-14T12:29:08.330Z,997
2022-12-14T12:33:02.911Z,997
2022-12-14T12:35:12.124Z,997
2022-12-14T12:39:10.315Z,997
2022-12-14T12:41:03.282Z,997
2022-12-14T12:45:05.557Z,997
2022-12-14T12:47:24.270Z,997
2022-12-14T12:51:03.635Z,997
2022-12-14T12:53:04.518Z,997
2022-12-14T12:55:07.959Z,997
2022-12-14T12:57:03.273Z,997
2022-12-14T12:59:03.610Z,997
2022-12-14T13:03:04.831Z,997
2022-12-14T13:05:29.565Z,997
2022-12-14T13:09:06.567Z,997
2022-12-14T13:11:26.980Z,997
2022-12-14T13:15:05.073Z,997
2022-12-14T13:17:05.906Z,997
2022-12-14T13:21:03.296Z,997
2022-12-14T13:23:43.375Z,997
2022-12-14T13:27:05.948Z,997
2022-12-14T13:29:05.492Z,997
2022-12-14T13:33:06.353Z,997
2022-12-14T13:35:03.667Z,997
2022-12-14T13:39:04.884Z,997
2022-12-14T13:41:08.267Z,997
2022-12-14T13:43:14.172Z,997
2022-12-14T13:47:06.072Z,997
2022-12-14T13:49:11.252Z,997
2022-12-14T13:51:03.418Z,997
2022-12-14T13:53:05.503Z,997
2022-12-14T13:57:06.408Z,997
2022-12-14T13:59:05.985Z,997
2022-12-14T14:03:03.363Z,998
2022-12-14T14:05:03.624Z,997
2022-12-14T14:09:07.066Z,998
2022-12-14T14:11:35.615Z,998
2022-12-14T14:15:04.542Z,997
2022-12-14T14:17:06.301Z,998
2022-12-14T14:21:06.052Z,998
2022-12-14T14:23:03.254Z,998
2022-12-14T14:25:09.367Z,998
2022-12-14T14:27:05.545Z,998
2022-12-14T14:29:05.066Z,998
2022-12-14T14:33:36.191Z,998
2022-12-14T14:35:04.660Z,998
2022-12-14T14:39:24.312Z,998
2022-12-14T14:41:16.866Z,998
2022-12-14T14:45:05.010Z,998
2022-12-14T14:47:07.316Z,998
2022-12-14T14:49:06.988Z,997
2022-12-14T14:51:04.649Z,998
2022-12-14T14:53:06.563Z,998
2022-12-14T14:55:28.146Z,997
2022-12-14T14:57:06.819Z,997
2022-12-14T14:59:05.107Z,997
2022-12-14T15:03:03.453Z,997
2022-12-14T15:09:05.399Z,998
2022-12-14T15:11:05.613Z,998
2022-12-14T15:13:14.399Z,998
2022-12-14T15:15:06.069Z,998
2022-12-14T15:17:05.767Z,998
2022-12-14T15:21:06.454Z,998
2022-12-14T15:23:07.504Z,998
2022-12-14T15:25:08.495Z,998
2022-12-14T15:27:05.866Z,998
2022-12-14T15:29:07.642Z,998
2022-12-14T15:33:08.577Z,998
2022-12-14T15:35:07.035Z,998
2022-12-14T15:39:07.760Z,998
2022-12-14T15:41:08.712Z,998
2022-12-14T15:45:11.397Z,998
2022-12-14T15:47:07.368Z,998
2022-12-14T15:49:14.369Z,998
2022-12-14T15:51:03.653Z,998
2022-12-14T15:53:06.485Z,998
2022-12-14T15:57:06.994Z,998
2022-12-14T15:59:05.110Z,998
2022-12-14T16:03:06.823Z,998
2022-12-14T16:05:07.626Z,998
2022-12-14T16:07:09.215Z,998
2022-12-14T16:09:04.729Z,998
2022-12-14T16:11:04.353Z,998
2022-12-14T16:15:05.131Z,999
2022-12-14T16:17:07.808Z,999
2022-12-14T16:21:03.451Z,999
2022-12-14T16:23:06.339Z,999
2022-12-14T16:25:13.024Z,999
2022-12-14T16:27:05.653Z,999
2022-12-14T16:29:05.126Z,999
2022-12-14T16:33:03.999Z,999
2022-12-14T16:35:07.042Z,999
2022-12-14T16:39:06.818Z,999
2022-12-14T16:41:06.614Z,999
2022-12-14T16:43:11.519Z,999
2022-12-14T16:45:08.461Z,999
2022-12-14T16:47:05.145Z,999
2022-12-14T16:51:12.860Z,999
2022-12-14T16:53:06.458Z,999
2022-12-14T16:57:06.903Z,999
2022-12-14T16:59:05.104Z,999
2022-12-14T17:03:05.330Z,999
2022-12-14T17:05:08.449Z,999
2022-12-14T17:09:06.080Z,999
2022-12-14T17:11:06.982Z,999
2022-12-14T17:15:05.011Z,999
2022-12-14T17:17:03.415Z,999
2022-12-14T17:21:06.485Z,999
2022-12-14T17:23:05.109Z,999
2022-12-14T17:27:06.375Z,999
2022-12-14T17:29:05.699Z,999
2022-12-14T17:33:05.196Z,1000
2022-12-14T17:35:05.943Z,1000
2022-12-14T17:37:08.347Z,1000
2022-12-14T17:39:06.093Z,1000
2022-12-14T17:41:03.041Z,1000
2022-12-14T17:45:03.153Z,1000
2022-12-14T17:47:06.702Z,1000
2022-12-14T17:51:06.162Z,1000
2022-12-14T17:53:05.148Z,1000
2022-12-14T17:55:09.024Z,1000
2022-12-14T17:57:06.006Z,1000
2022-12-14T17:59:06.472Z,1000
2022-12-14T18:03:05.691Z,1000
2022-12-14T18:05:07.393Z,1000
2022-12-14T18:09:06.538Z,1000
2022-12-14T18:11:11.984Z,1000
2022-12-14T18:13:08.240Z,1000
2022-12-14T18:15:06.464Z,1000
2022-12-14T18:17:11.335Z,1000
2022-12-14T18:19:08.321Z,1000
2022-12-14T18:21:07.415Z,1000
2022-12-14T18:23:03.345Z,1000
2022-12-14T18:27:06.323Z,1000
2022-12-14T18:29:03.002Z,1000
2022-12-14T18:33:05.083Z,1000
2022-12-14T18:35:07.043Z,1000
2022-12-14T18:39:06.368Z,1000
2022-12-14T18:41:09.421Z,1000
2022-12-14T18:45:03.785Z,1000
2022-12-14T18:47:33.426Z,1000
2022-12-14T18:51:07.597Z,1000
2022-12-14T18:53:06.921Z,1000
2022-12-14T18:57:07.914Z,1000
2022-12-14T18:59:04.464Z,1001
2022-12-14T19:03:08.368Z,1001
2022-12-14T19:05:06.211Z,1001
2022-12-14T19:09:08.264Z,1001
2022-12-14T19:11:07.751Z,1001
2022-12-14T19:15:03.776Z,1001
2022-12-14T19:17:05.705Z,1001
2022-12-14T19:21:06.941Z,1001
2022-12-14T19:23:06.017Z,1001
2022-12-14T19:27:03.747Z,1001
2022-12-14T19:29:03.496Z,1001
2022-12-14T19:31:14.172Z,1001
2022-12-14T19:33:08.595Z,1001
2022-12-14T19:35:06.451Z,1001
2022-12-14T19:37:14.246Z,1001
2022-12-14T19:39:03.755Z,1001
2022-12-14T19:41:07.999Z,1001
2022-12-14T19:43:09.249Z,1001
2022-12-14T19:45:06.477Z,1001
2022-12-14T19:47:08.793Z,1001
2022-12-14T19:51:07.099Z,1001
2022-12-14T19:53:03.765Z,1001
2022-12-14T19:57:03.380Z,1001
2022-12-14T19:59:07.368Z,1001
2022-12-14T20:03:04.017Z,1001
2022-12-14T20:05:05.374Z,1001
2022-12-14T20:09:03.367Z,1001
2022-12-14T20:11:06.614Z,1001
2022-12-14T20:13:13.991Z,1001
2022-12-14T20:15:07.629Z,1001
2022-12-14T20:17:05.713Z,1001
2022-12-14T20:21:04.388Z,1001
2022-12-14T20:23:06.420Z,1001
2022-12-14T20:25:08.544Z,1002
2022-12-14T20:27:13.464Z,1002
2022-12-14T20:29:05.479Z,1002
2022-12-14T20:33:05.092Z,1002
2022-12-14T20:35:07.762Z,1002
2022-12-14T20:39:05.193Z,1002
2022-12-14T20:41:07.136Z,1002
2022-12-14T20:45:07.293Z,1002
2022-12-14T20:47:08.986Z,1002
2022-12-14T20:49:08.369Z,1002
2022-12-14T20:51:07.469Z,1002
2022-12-14T20:53:06.724Z,1002
2022-12-14T20:55:05.969Z,1002
2022-12-14T20:57:03.837Z,1002
2022-12-14T20:59:05.609Z,1002
2022-12-14T21:03:05.230Z,1002
2022-12-14T21:05:07.712Z,1002
2022-12-14T21:09:05.337Z,1002
2022-12-14T21:11:07.404Z,1002
2022-12-14T21:15:07.467Z,1002
2022-12-14T21:17:06.422Z,1002
2022-12-14T21:21:05.097Z,1002
2022-12-14T21:23:03.836Z,1002
2022-12-14T21:27:04.779Z,1002
2022-12-14T21:29:08.230Z,1002
2022-12-14T21:31:08.443Z,1002
2022-12-14T21:33:03.452Z,1002
2022-12-14T21:35:05.722Z,1002
2022-12-14T21:39:04.231Z,1002
2022-12-14T21:41:05.252Z,1002
2022-12-14T21:45:09.329Z,1002
2022-12-14T21:47:06.067Z,1002
2022-12-14T21:51:03.692Z,1002
2022-12-14T21:53:04.894Z,1002
2022-12-14T21:57:07.260Z,1002
2022-12-14T21:59:03.809Z,1002
2022-12-14T22:01:07.937Z,1002
2022-12-14T22:03:06.182Z,1002
2022-12-14T22:05:06.447Z,1002
2022-12-14T22:07:04.242Z,1002
2022-12-14T22:09:05.667Z,1002
2022-12-14T22:11:05.198Z,1002
2022-12-14T22:15:07.139Z,1002
2022-12-14T22:17:06.241Z,1002
2022-12-14T22:19:08.551Z,1002
2022-12-14T22:21:04.787Z,1002
2022-12-14T22:23:09.669Z,1002
2022-12-14T22:27:06.088Z,1002
2022-12-14T22:29:06.489Z,1002
2022-12-14T22:31:10.818Z,1002
2022-12-14T22:33:06.122Z,1002
2022-12-14T22:35:05.153Z,1002
2022-12-14T22:37:07.952Z,1002
2022-12-14T22:39:06.954Z,1002
2022-12-14T22:41:03.826Z,1002
2022-12-14T22:43:07.580Z,1002
2022-12-14T22:45:04.073Z,1002
2022-12-14T22:47:07.464Z,1002
2022-12-14T22:51:07.500Z,1002
2022-12-14T22:53:05.237Z,1002
2022-12-14T22:57:06.492Z,1002
2022-12-14T22:59:07.441Z,1002
2022-12-14T23:03:07.360Z,1002
2022-12-14T23:05:07.827Z,1002
2022-12-14T23:09:07.329Z,1002
2022-12-14T23:11:05.960Z,1002
2022-12-14T23:15:07.058Z,1002
2022-12-14T23:17:06.636Z,1002
2022-12-14T23:19:07.624Z,1002
2022-12-14T23:21:06.020Z,1003
2022-12-14T23:23:04.491Z,1003
2022-12-14T23:25:07.917Z,1003
2022-12-14T23:27:09.238Z,1002
2022-12-14T23:29:06.886Z,1003
2022-12-14T23:31:08.100Z,1003
2022-12-14T23:33:07.122Z,1003
2022-12-14T23:35:06.374Z,1003
2022-12-14T23:37:08.646Z,1003
2022-12-14T23:39:05.256Z,1003
2022-12-14T23:41:07.941Z,1003
2022-12-14T23:45:03.827Z,1003
2022-12-14T23:47:06.990Z,1003
2022-12-14T23:49:11.988Z,1003
2022-12-14T23:51:07.800Z,1003
2022-12-14T23:53:07.544Z,1003
2022-12-14T23:57:05.127Z,1003
2022-12-14T23:59:10.344Z,1003
